Time;durP1;ratioP1;P1;durP2;ratioP2;P2;SDS_P1;SDS_P2;PMS_P1;PMS_P2;Temp;Humidity;BMP_temperature;BMP_pressure;BME280_temperature;BME280_humidity;BME280_pressure;Samples;Min_cycle;Max_cycle;Signal;HPM_P1;HPM_P2
2022/05/13 00:00:34;;;;;;;5.30;3.78;;;;;;;9.85;70.89;93819.22;5049485;28;20017;-44
2022/05/13 00:03:00;;;;;;;6.13;4.10;;;;;;;9.88;70.79;93818.16;5049501;28;20021;-45
2022/05/13 00:05:25;;;;;;;6.70;4.35;;;;;;;9.69;71.51;93819.59;5049217;28;20105;-45
2022/05/13 00:07:50;;;;;;;12.13;4.05;;;;;;;9.91;71.40;93819.09;5049368;28;20025;-45
2022/05/13 00:10:16;;;;;;;6.63;3.85;;;;;;;9.86;71.03;93820.72;5049295;28;20520;-46
2022/05/13 00:12:42;;;;;;;4.68;4.22;;;;;;;9.98;70.58;93820.47;5049324;28;20450;-46
2022/05/13 00:15:13;;;;;;;5.75;4.40;;;;;;;9.83;71.34;93815.53;5049315;28;20051;-46
2022/05/13 00:17:38;;;;;;;9.18;4.78;;;;;;;9.90;70.60;93809.34;5048772;28;20029;-46
2022/05/13 00:20:05;;;;;;;7.88;5.32;;;;;;;9.73;69.88;93818.00;5049168;28;20028;-48
2022/05/13 00:22:30;;;;;;;8.40;5.38;;;;;;;9.77;69.98;93812.88;5049200;28;20017;-45
2022/05/13 00:24:56;;;;;;;5.30;4.38;;;;;;;9.78;70.57;93811.63;5048808;28;20410;-46
2022/05/13 00:27:22;;;;;;;6.55;4.22;;;;;;;9.91;69.38;93808.81;5049048;28;20017;-45
2022/05/13 00:29:48;;;;;;;7.20;4.65;;;;;;;9.88;70.05;93804.38;5048793;28;20025;-46
2022/05/13 00:32:14;;;;;;;6.47;4.05;;;;;;;9.91;69.46;93808.81;5048973;28;20025;-46
2022/05/13 00:34:39;;;;;;;6.05;4.38;;;;;;;9.75;69.76;93809.16;5048757;28;20021;-45
2022/05/13 00:37:05;;;;;;;5.53;4.28;;;;;;;9.68;70.39;93812.59;5048604;28;20034;-46
2022/05/13 00:39:30;;;;;;;4.28;3.72;;;;;;;9.80;69.44;93816.59;5048630;28;20033;-46
2022/05/13 00:42:10;;;;;;;4.68;4.18;;;;;;;9.86;69.97;93814.44;5048471;28;20063;-44
2022/05/13 00:44:36;;;;;;;5.60;4.22;;;;;;;9.83;69.09;93805.22;5048832;28;20040;-46
2022/05/13 00:47:03;;;;;;;5.55;4.57;;;;;;;9.51;70.40;93801.91;5041801;28;20032;-47
2022/05/13 00:49:31;;;;;;;4.85;4.13;;;;;;;9.48;70.89;93797.50;5028839;28;20033;-44
2022/05/13 00:51:56;;;;;;;5.60;4.30;;;;;;;9.27;70.98;93801.44;5028850;28;20030;-45
2022/05/13 00:54:22;;;;;;;6.25;3.85;;;;;;;9.35;71.02;93805.03;5028576;28;20517;-45
2022/05/13 00:56:48;;;;;;;5.35;4.43;;;;;;;9.31;70.84;93802.59;5027385;28;20273;-46
2022/05/13 00:59:16;;;;;;;5.40;3.50;;;;;;;9.20;70.53;93813.09;5028415;28;20025;-44
2022/05/13 01:01:41;;;;;;;6.90;3.97;;;;;;;9.33;70.54;93813.09;5027230;28;20100;-45
2022/05/13 01:04:12;;;;;;;4.38;3.88;;;;;;;9.48;69.99;93805.00;5028674;28;20040;-45
2022/05/13 01:06:38;;;;;;;5.20;3.78;;;;;;;9.28;69.99;93813.94;5028659;28;20051;-46
2022/05/13 01:09:04;;;;;;;4.72;3.58;;;;;;;9.26;70.06;93811.72;5026312;28;20486;-44
2022/05/13 01:11:33;;;;;;;8.45;4.00;;;;;;;9.09;71.04;93801.03;5028519;28;20029;-46
2022/05/13 01:14:05;;;;;;;4.43;4.00;;;;;;;8.88;72.32;93808.44;5027394;28;20033;-46
2022/05/13 01:18:05;;;;;;;5.55;4.30;;;;;;;8.90;72.76;93799.66;5028151;28;20410;-44
2022/05/13 01:19:18;;;;;;;10.45;4.78;;;;;;;8.99;71.94;93807.47;5028125;28;20037;-45
2022/05/13 01:21:43;;;;;;;7.15;4.47;;;;;;;9.12;71.37;93804.72;5028062;28;20024;-45
2022/05/13 01:24:09;;;;;;;8.38;6.55;;;;;;;9.08;71.78;93802.28;5028375;28;20021;-45
2022/05/13 01:26:36;;;;;;;12.50;7.68;;;;;;;9.09;72.37;93801.03;5028326;28;20022;-45
2022/05/13 01:29:02;;;;;;;9.05;7.43;;;;;;;8.93;72.54;93801.34;5028174;28;20025;-45
2022/05/13 01:31:33;;;;;;;8.70;6.93;;;;;;;8.86;72.68;93794.44;5028043;28;20026;-46
2022/05/13 01:34:00;;;;;;;8.38;6.40;;;;;;;8.79;72.53;93794.34;5028251;28;20025;-46
2022/05/13 01:36:27;;;;;;;9.05;6.13;;;;;;;8.67;72.28;93804.06;5027812;28;20502;-45
2022/05/13 01:38:53;;;;;;;7.68;5.85;;;;;;;8.57;72.52;93803.00;5028119;28;20324;-45
2022/05/13 01:41:19;;;;;;;7.60;5.22;;;;;;;8.47;72.68;93794.41;5027831;28;20041;-45
2022/05/13 01:43:46;;;;;;;7.75;5.25;;;;;;;8.51;73.10;93791.38;5038187;28;20460;-46
2022/05/13 01:46:12;;;;;;;7.38;5.40;;;;;;;8.61;72.96;93797.94;5047565;28;20021;-45
2022/05/13 01:48:39;;;;;;;7.65;5.95;;;;;;;8.54;73.19;93785.53;5047839;28;20105;-47
2022/05/13 01:51:04;;;;;;;9.90;5.90;;;;;;;8.49;73.48;93778.13;5046693;28;20056;-44
2022/05/13 01:53:30;;;;;;;10.00;5.90;;;;;;;8.54;72.49;93779.28;5047851;28;20052;-45
2022/05/13 01:55:56;;;;;;;11.98;6.40;;;;;;;8.56;72.52;93777.50;5047477;28;20028;-47
2022/05/13 01:58:23;;;;;;;7.53;6.20;;;;;;;8.48;71.77;93753.88;5047427;28;20031;-46
2022/05/13 02:00:50;;;;;;;7.70;5.95;;;;;;;8.77;71.23;93772.13;5047777;28;20041;-47
2022/05/13 02:06:00;;;;;;;7.38;5.43;;;;;;;8.79;71.53;93775.81;5047746;28;20054;-45
2022/05/13 02:08:27;;;;;;;8.27;6.13;;;;;;;8.74;71.61;93762.16;5047896;28;20024;-47
2022/05/13 02:10:53;;;;;;;8.13;5.70;;;;;;;8.56;71.47;93755.47;5047473;28;20029;-48
2022/05/13 02:13:19;;;;;;;6.05;4.57;;;;;;;8.71;71.10;93776.97;5047590;28;20021;-46
2022/05/13 02:15:45;;;;;;;6.22;4.70;;;;;;;8.64;71.02;93774.88;5047241;28;20021;-45
2022/05/13 02:18:10;;;;;;;6.85;4.88;;;;;;;8.67;71.03;93774.53;5030605;28;20030;-48
2022/05/13 02:20:36;;;;;;;7.10;4.53;;;;;;;8.67;71.41;93782.81;5027262;28;20025;-45
2022/05/13 02:23:02;;;;;;;6.63;5.25;;;;;;;8.51;72.00;93786.59;5027299;28;20022;-47
2022/05/13 02:25:29;;;;;;;6.13;5.07;;;;;;;8.45;71.84;93779.69;5027545;28;20134;-44
2022/05/13 02:27:58;;;;;;;5.28;4.78;;;;;;;8.43;72.35;93780.22;5027171;28;20037;-44
2022/05/13 02:30:24;;;;;;;5.13;4.10;;;;;;;8.36;72.43;93778.09;5027098;28;20490;-47
2022/05/13 02:32:49;;;;;;;5.20;4.15;;;;;;;8.27;72.60;93784.03;5027170;28;20419;-48
2022/05/13 02:35:15;;;;;;;5.85;4.72;;;;;;;8.07;73.34;93779.06;5027352;28;20023;-45
2022/05/13 02:37:40;;;;;;;5.32;4.00;;;;;;;8.20;72.67;93779.84;5027069;28;20029;-45
2022/05/13 02:40:06;;;;;;;4.90;4.30;;;;;;;8.31;71.85;93781.69;5038435;28;20021;-46
2022/05/13 02:42:32;;;;;;;4.57;4.00;;;;;;;8.29;72.13;93787.72;5046800;28;20535;-48
2022/05/13 02:44:57;;;;;;;6.25;4.43;;;;;;;8.09;73.33;93785.53;5046818;28;20028;-44
2022/05/13 02:47:23;;;;;;;5.47;4.18;;;;;;;7.84;73.33;93756.66;5046765;28;20032;-47
2022/05/13 02:50:17;;;;;;;5.32;4.50;;;;;;;7.92;73.68;93784.31;5046769;28;20040;-45
2022/05/13 02:52:34;;;;;;;6.00;5.15;;;;;;;8.13;72.85;93782.47;5046743;28;20181;-45
2022/05/13 02:54:59;;;;;;;6.35;4.18;;;;;;;8.22;72.29;93782.81;5046755;28;20021;-48
2022/05/13 02:57:25;;;;;;;4.50;4.03;;;;;;;8.17;72.24;93791.88;5046662;28;20032;-48
2022/05/13 02:59:50;;;;;;;5.63;4.30;;;;;;;8.15;72.09;93772.41;5046990;28;20017;-48
2022/05/13 03:02:15;;;;;;;4.97;4.15;;;;;;;8.11;71.52;93790.50;5045743;28;20035;-45
2022/05/13 03:04:41;;;;;;;7.50;5.13;;;;;;;7.73;72.34;93789.09;5046946;28;20021;-44
2022/05/13 03:07:06;;;;;;;8.30;5.30;;;;;;;7.64;72.72;93796.44;5046864;28;20048;-46
2022/05/13 03:09:32;;;;;;;8.63;4.95;;;;;;;7.91;72.53;93800.03;5046771;28;20505;-45
2022/05/13 03:11:57;;;;;;;6.78;5.00;;;;;;;7.94;72.72;93798.25;5046894;28;20408;-46
2022/05/13 03:14:22;;;;;;;5.75;4.70;;;;;;;7.96;73.04;93790.22;5046472;28;20039;-45
2022/05/13 03:16:48;;;;;;;5.72;4.60;;;;;;;8.04;73.44;93796.59;5040874;28;20029;-47
2022/05/13 03:19:13;;;;;;;5.88;5.03;;;;;;;7.87;73.61;93793.38;5026356;28;20022;-46
2022/05/13 03:21:39;;;;;;;6.03;4.93;;;;;;;7.89;73.80;93790.84;5026679;28;20038;-47
2022/05/13 03:24:04;;;;;;;6.50;5.20;;;;;;;8.03;73.28;93795.13;5026836;28;20022;-44
2022/05/13 03:26:30;;;;;;;6.63;5.20;;;;;;;8.06;73.22;93794.06;5026811;28;20056;-45
2022/05/13 03:28:55;;;;;;;7.13;5.70;;;;;;;8.09;73.07;93802.03;5026659;28;20064;-45
2022/05/13 03:31:21;;;;;;;5.60;4.30;;;;;;;7.85;72.24;93793.91;5026441;28;20033;-45
2022/05/13 03:33:47;;;;;;;6.00;4.80;;;;;;;8.08;72.05;93799.78;5029030;28;20021;-45
2022/05/13 03:36:14;;;;;;;4.78;4.30;;;;;;;8.05;72.20;93801.59;5039891;28;20035;-46
2022/05/13 03:38:43;;;;;;;19.25;9.63;;;;;;;7.94;72.13;93804.50;5049906;28;20029;-45
2022/05/13 03:41:09;;;;;;;;;;;;;;;7.88;72.50;93808.63;5050176;28;20041;-47
2022/05/13 03:43:34;;;;;;;8.40;5.43;;;;;;;7.93;72.88;93808.50;5049849;28;20339;-45
2022/05/13 03:46:00;;;;;;;8.80;5.25;;;;;;;8.06;72.10;93813.31;5049506;28;20081;-47
2022/05/13 03:48:25;;;;;;;8.52;5.80;;;;;;;8.04;73.29;93810.34;5049510;28;20028;-48
2022/05/13 03:50:51;;;;;;;11.10;5.65;;;;;;;8.15;73.22;93812.94;5049645;28;20051;-48
2022/05/13 03:53:16;;;;;;;14.32;8.38;;;;;;;8.22;73.09;93806.81;5049360;28;20102;-47
2022/05/13 04:10:55;;;;;;;7.50;5.55;;;;;;;8.95;69.35;93835.34;5064269;28;20051;-47
2022/05/13 04:16:06;;;;;;;8.00;5.30;;;;;;;9.34;69.12;93831.09;5064059;28;20531;-45
2022/05/13 04:18:45;;;;;;;6.88;5.28;;;;;;;9.63;69.15;93836.25;5063824;28;20119;-45
2022/05/13 04:21:22;;;;;;;22.88;12.65;;;;;;;9.81;69.55;93843.63;5064188;28;20064;-46
2022/05/13 04:23:52;;;;;;;67.97;32.35;;;;;;;10.00;68.51;93837.97;5064130;28;20031;-45
2022/05/13 04:26:18;;;;;;;54.15;28.13;;;;;;;10.37;67.82;93845.88;5064143;28;20408;-46
2022/05/13 04:28:46;;;;;;;38.92;17.05;;;;;;;10.57;66.66;93836.88;5063685;28;20036;-45
2022/05/13 04:31:13;;;;;;;18.15;10.70;;;;;;;10.98;65.65;93843.66;5051611;28;20036;-45
2022/05/13 04:33:39;;;;;;;21.90;11.90;;;;;;;11.28;64.74;93836.28;5043548;28;20078;-46
2022/05/13 04:54:42;;;;;;;7.70;6.75;;;;;;;15.10;56.16;93845.34;5128520;27;20625;-46
2022/05/13 04:57:08;;;;;;;13.82;9.20;;;;;;;15.17;55.49;93838.97;5128401;27;20118;-46
2022/05/13 04:59:33;;;;;;;13.32;9.68;;;;;;;15.08;55.43;93842.38;5128423;27;20019;-46
2022/05/13 05:01:58;;;;;;;13.73;10.82;;;;;;;14.85;56.08;93844.63;5107884;27;20072;-45
2022/05/13 05:04:24;;;;;;;12.10;9.68;;;;;;;14.65;57.03;93839.38;5108047;28;20043;-47
2022/05/13 05:06:49;;;;;;;11.38;9.95;;;;;;;14.46;58.03;93842.66;5108042;28;20027;-46
2022/05/13 05:09:15;;;;;;;14.68;9.20;;;;;;;15.00;57.21;93849.31;5107746;28;20024;-45
2022/05/13 05:11:40;;;;;;;14.20;8.60;;;;;;;15.68;56.33;93845.94;5107988;28;20054;-46
2022/05/13 05:14:06;;;;;;;14.32;8.75;;;;;;;16.13;54.75;93844.69;5107611;28;20510;-46
2022/05/13 05:16:31;;;;;;;10.48;8.57;;;;;;;16.62;53.70;93847.22;5107896;28;20546;-46
2022/05/13 05:18:59;;;;;;;16.02;9.05;;;;;;;17.47;52.42;93843.28;5107119;28;20416;-45
2022/05/13 05:21:25;;;;;;;16.63;9.50;;;;;;;18.27;49.96;93847.75;5107486;28;20528;-45
2022/05/13 05:23:51;;;;;;;17.08;9.40;;;;;;;18.87;48.44;93832.47;5107353;28;20069;-46
2022/05/13 05:26:17;;;;;;;11.02;7.47;;;;;;;19.85;46.71;93829.34;5107618;28;20085;-47
2022/05/13 05:28:42;;;;;;;16.42;7.65;;;;;;;20.72;44.48;93847.63;5107342;28;20484;-46
2022/05/13 05:31:09;;;;;;;13.13;6.95;;;;;;;21.20;43.37;93840.78;5107590;28;20020;-47
2022/05/13 05:33:35;;;;;;;9.07;6.43;;;;;;;21.46;42.53;93848.69;5107227;28;20027;-46
2022/05/13 05:36:00;;;;;;;6.07;5.45;;;;;;;21.51;41.98;93847.59;5107587;28;20027;-46
2022/05/13 05:38:26;;;;;;;5.47;4.95;;;;;;;21.66;41.95;93851.97;5107431;28;20028;-45
2022/05/13 05:40:52;;;;;;;14.40;4.80;;;;;;;21.77;41.24;93848.41;5107203;28;20104;-48
2022/05/13 05:43:17;;;;;;;5.13;4.35;;;;;;;22.14;41.36;93840.78;5107251;28;20016;-48
2022/05/13 05:45:44;;;;;;;7.78;3.95;;;;;;;22.17;40.13;93839.56;5107323;28;20050;-46
2022/05/13 05:48:11;;;;;;;8.63;4.65;;;;;;;22.45;40.13;93846.81;5107297;28;20034;-46
2022/05/13 05:50:36;;;;;;;8.50;4.30;;;;;;;22.47;39.36;93844.09;5106881;28;20024;-47
2022/05/13 05:53:02;;;;;;;9.15;3.45;;;;;;;22.27;41.60;93836.59;5106360;28;20044;-46
2022/05/13 05:58:14;;;;;;;14.02;4.20;;;;;;;21.61;42.36;93836.25;5093527;28;20123;-47
2022/05/13 06:00:43;;;;;;;6.43;3.72;;;;;;;21.33;41.87;93831.75;5093155;28;20028;-46
2022/05/13 06:03:08;;;;;;;30.33;5.35;;;;;;;21.36;43.31;93827.69;5093027;28;20447;-46
2022/05/13 06:05:34;;;;;;;6.55;3.78;;;;;;;21.27;42.68;93825.75;5093110;28;20035;-47
2022/05/13 06:08:01;;;;;;;25.33;5.63;;;;;;;21.29;43.64;93820.25;5092986;28;20046;-46
2022/05/13 06:10:27;;;;;;;8.20;4.28;;;;;;;21.23;43.23;93826.22;5092896;28;20031;-46
2022/05/13 06:12:53;;;;;;;11.50;4.18;;;;;;;20.99;44.25;93831.06;5092884;28;20032;-46
2022/05/13 06:15:20;;;;;;;7.78;4.30;;;;;;;20.79;44.68;93824.19;5092892;28;20028;-46
2022/05/13 06:17:51;;;;;;;7.95;3.88;;;;;;;20.97;44.50;93828.16;5093109;28;20031;-46
2022/05/13 06:20:19;;;;;;;5.70;3.50;;;;;;;21.07;44.02;93822.47;5093106;28;20028;-46
2022/05/13 06:22:45;;;;;;;8.70;3.83;;;;;;;21.18;43.21;93815.38;5092667;28;20118;-47
2022/05/13 06:25:12;;;;;;;4.13;3.35;;;;;;;21.49;43.43;93827.81;5092998;28;20028;-47
2022/05/13 06:27:38;;;;;;;18.98;3.53;;;;;;;21.95;42.74;93812.97;5092626;28;20028;-46
2022/05/13 06:30:09;;;;;;;11.10;3.50;;;;;;;22.09;42.97;93822.22;5092878;28;20039;-49
2022/05/13 06:32:35;;;;;;;3.58;2.85;;;;;;;22.25;40.49;93809.06;5092816;28;20386;-47
2022/05/13 06:35:01;;;;;;;3.08;2.65;;;;;;;22.38;39.75;93804.88;5092824;28;20023;-45
2022/05/13 06:37:27;;;;;;;3.92;3.35;;;;;;;22.82;40.46;93815.81;5092741;28;20480;-46
2022/05/13 06:39:52;;;;;;;13.95;3.25;;;;;;;23.11;39.68;93813.13;5092679;28;20568;-46
2022/05/13 06:42:17;;;;;;;5.47;2.35;;;;;;;23.52;37.96;93810.38;5092342;28;20024;-47
2022/05/13 06:44:43;;;;;;;2.60;2.40;;;;;;;24.20;38.74;93801.88;5091712;28;20031;-46
2022/05/13 06:47:09;;;;;;;4.15;2.72;;;;;;;24.88;37.35;93812.22;5092123;28;20412;-47
2022/05/13 06:49:35;;;;;;;3.75;2.67;;;;;;;25.73;35.45;93799.84;5092221;28;20081;-46
2022/05/13 06:52:02;;;;;;;6.95;2.50;;;;;;;26.21;33.91;93804.72;5091867;28;20020;-45
2022/05/13 06:54:28;;;;;;;10.32;3.38;;;;;;;26.29;33.75;93802.97;5092047;28;20048;-45
2022/05/13 06:56:54;;;;;;;3.15;2.70;;;;;;;26.43;32.71;93797.16;5092366;28;20417;-43
2022/05/13 06:59:20;;;;;;;2.70;2.50;;;;;;;26.56;32.17;93804.78;5092039;28;20416;-44
2022/05/13 07:01:46;;;;;;;4.47;2.97;;;;;;;27.08;32.61;93797.63;5090722;28;20028;-45
2022/05/13 07:04:11;;;;;;;3.03;2.70;;;;;;;28.19;31.67;93796.75;5091854;28;20085;-45
2022/05/13 07:06:37;;;;;;;3.58;2.80;;;;;;;29.49;29.31;93793.06;5091168;28;20024;-44
2022/05/13 07:09:02;;;;;;;6.22;3.20;;;;;;;30.30;27.87;93796.06;5091881;28;20475;-45
2022/05/13 07:11:28;;;;;;;2.53;2.33;;;;;;;31.07;26.01;93790.13;5091827;28;20066;-44
2022/05/13 07:13:53;;;;;;;6.80;3.08;;;;;;;30.32;26.19;93788.28;5091995;28;20516;-44
2022/05/13 07:16:19;;;;;;;3.95;2.60;;;;;;;30.62;25.68;93794.03;5091661;28;20404;-45
2022/05/13 07:18:46;;;;;;;2.85;2.60;;;;;;;31.55;25.42;93791.25;5091619;28;20106;-45
2022/05/13 07:21:12;;;;;;;2.58;2.38;;;;;;;32.22;24.56;93792.59;5091633;28;20081;-44
2022/05/13 07:23:38;;;;;;;2.63;2.42;;;;;;;33.33;23.37;93783.75;5091770;28;20030;-45
2022/05/13 07:26:03;;;;;;;7.82;2.40;;;;;;;33.95;22.48;93781.69;5091766;28;20536;-44
2022/05/13 07:28:29;;;;;;;2.30;2.10;;;;;;;33.74;22.46;93768.56;5091432;28;20023;-44
2022/05/13 07:30:54;;;;;;;2.42;2.22;;;;;;;34.30;21.29;93774.97;5091762;28;20048;-46
2022/05/13 07:33:22;;;;;;;4.07;2.30;;;;;;;34.82;21.38;93774.75;5091188;28;20099;-45
2022/05/13 07:35:47;;;;;;;41.60;4.40;;;;;;;35.57;22.23;93781.03;5090682;28;20081;-44
2022/05/13 07:38:13;;;;;;;4.00;1.90;;;;;;;35.99;19.97;93774.78;5091313;28;20036;-45
2022/05/13 07:43:23;;;;;;;4.20;2.33;;;;;;;36.79;20.02;93777.13;5091253;28;20031;-46
2022/05/13 07:45:48;;;;;;;4.82;2.38;;;;;;;37.58;19.00;93764.13;5091114;28;20028;-45
2022/05/13 07:48:14;;;;;;;2.53;2.33;;;;;;;37.46;17.68;93760.56;5091115;28;20401;-44
2022/05/13 07:50:39;;;;;;;3.10;2.78;;;;;;;36.78;18.37;93775.69;5089699;28;20028;-45
2022/05/13 07:53:05;;;;;;;5.70;2.63;;;;;;;36.86;19.86;93779.28;5090651;28;20040;-45
2022/05/13 07:55:31;;;;;;;1.92;1.75;;;;;;;37.23;19.52;93769.22;5091324;28;20027;-45
2022/05/13 07:57:57;;;;;;;4.10;2.03;;;;;;;36.74;18.20;93767.06;5091167;28;20040;-44
2022/05/13 08:00:28;;;;;;;4.18;2.67;;;;;;;36.48;19.86;93762.72;5091245;28;20042;-45
2022/05/13 08:02:56;;;;;;;3.63;2.33;;;;;;;36.41;19.87;93749.72;5091043;28;20080;-45
2022/05/13 08:05:22;;;;;;;2.85;2.53;;;;;;;36.85;19.29;93762.75;5090780;28;20110;-44
2022/05/13 08:07:47;;;;;;;3.95;2.10;;;;;;;37.03;19.56;93763.50;5090736;28;20035;-46
2022/05/13 08:10:14;;;;;;;4.55;2.30;;;;;;;37.87;16.98;93751.09;5090763;28;20046;-46
2022/05/13 08:12:39;;;;;;;81.80;9.00;;;;;;;38.34;17.93;93754.50;5090694;28;20094;-45
2022/05/13 08:15:08;;;;;;;27.60;3.13;;;;;;;38.28;18.26;93743.00;5090626;28;20085;-45
2022/05/13 08:17:34;;;;;;;9.13;2.08;;;;;;;38.39;17.76;93737.88;5090742;28;20042;-48
2022/05/13 08:19:59;;;;;;;5.38;1.75;;;;;;;38.28;16.98;93740.13;5090835;28;20032;-46
2022/05/13 08:22:25;;;;;;;3.60;1.83;;;;;;;39.11;17.28;93739.53;5089503;28;20047;-46
2022/05/13 08:24:51;;;;;;;2.35;1.98;;;;;;;39.75;16.41;93738.91;5090720;28;20032;-46
2022/05/13 08:27:16;;;;;;;6.15;2.33;;;;;;;39.15;17.09;93740.25;5090495;28;20507;-45
2022/05/13 08:29:42;;;;;;;2.40;1.80;;;;;;;38.99;16.27;93733.84;5090481;28;20528;-47
2022/05/13 08:32:07;;;;;;;26.40;4.03;;;;;;;39.10;15.83;93738.81;5089536;28;20038;-45
2022/05/13 08:34:33;;;;;;;13.15;2.10;;;;;;;38.54;17.51;93736.34;5090478;28;20028;-45
2022/05/13 08:36:58;;;;;;;2.90;1.80;;;;;;;38.53;15.98;93737.81;5090608;28;20111;-46
2022/05/13 08:39:24;;;;;;;8.05;3.22;;;;;;;38.66;14.91;93734.09;5090671;28;20031;-46
2022/05/13 08:42:13;;;;;;;1.75;1.45;;;;;;;38.94;14.23;93733.16;5090271;28;20569;-46
2022/05/13 08:44:38;;;;;;;2.08;1.67;;;;;;;38.93;15.62;93733.91;5090570;28;20020;-45
2022/05/13 08:47:20;;;;;;;4.25;1.88;;;;;;;39.50;14.95;93746.41;5089379;28;20409;-44
2022/05/13 08:49:51;;;;;;;3.75;2.10;;;;;;;39.39;14.04;93731.34;5090290;28;20115;-45
2022/05/13 08:55:24;;;;;;;1.63;1.50;;;;;;;39.53;13.90;93727.56;5090377;28;20047;-46
2022/05/13 08:57:50;;;;;;;2.50;1.73;;;;;;;39.70;13.99;93716.56;5090238;28;20031;-44
2022/05/13 09:00:23;;;;;;;14.73;2.35;;;;;;;40.06;13.11;93722.66;5089321;28;20412;-45
2022/05/13 09:03:18;;;;;;;8.13;1.98;;;;;;;40.40;13.90;93720.72;5090435;28;20024;-45
2022/05/13 09:05:58;;;;;;;2.38;1.73;;;;;;;39.42;13.54;93720.44;5087299;28;20043;-46
2022/05/13 09:08:24;;;;;;;3.58;1.70;;;;;;;38.01;13.86;93709.94;5089780;28;20082;-44
2022/05/13 09:11:14;;;;;;;2.15;1.73;;;;;;;37.88;14.43;93709.28;5088916;28;20020;-43
2022/05/13 09:13:42;;;;;;;4.55;1.98;;;;;;;38.31;16.38;93706.22;5090276;28;20020;-44
2022/05/13 09:16:08;;;;;;;4.35;2.15;;;;;;;38.47;15.89;93698.16;5089971;28;20058;-44
2022/05/13 09:18:42;;;;;;;2.53;1.92;;;;;;;38.21;16.45;93698.31;5090065;28;20024;-44
2022/05/13 09:21:16;;;;;;;11.77;5.28;;;;;;;38.66;16.54;93690.09;5088745;28;20016;-44
2022/05/13 09:23:43;;;;;;;4.07;2.00;;;;;;;38.86;14.17;93698.59;5089910;28;20048;-46
2022/05/13 09:26:21;;;;;;;9.07;2.55;;;;;;;38.11;15.33;93697.66;5090173;28;20461;-44
2022/05/13 09:29:05;;;;;;;3.60;2.00;;;;;;;38.19;16.04;93683.16;5089872;28;20032;-44
2022/05/13 09:31:32;;;;;;;3.30;2.05;;;;;;;38.75;15.03;93682.81;5094048;28;20028;-44
2022/05/13 09:33:58;;;;;;;5.00;1.98;;;;;;;39.06;14.23;93683.25;5093886;28;20448;-44
2022/05/13 09:36:26;;;;;;;2.13;1.50;;;;;;;39.31;14.46;93682.28;5092842;28;20115;-47
2022/05/13 09:38:56;;;;;;;13.50;2.40;;;;;;;39.60;15.42;93674.03;5093885;28;20408;-50
2022/05/13 09:41:26;;;;;;;5.85;2.22;;;;;;;39.63;14.50;93675.47;5093567;28;20062;-46
2022/05/13 09:44:06;;;;;;;5.22;1.98;;;;;;;39.92;15.00;93673.63;5093801;28;20027;-45
2022/05/13 09:46:37;;;;;;;19.08;2.80;;;;;;;40.17;14.79;93668.25;5093486;28;20028;-45
2022/05/13 09:49:17;;;;;;;2.72;1.95;;;;;;;39.85;16.40;93662.91;5110332;28;20035;-45
2022/05/13 09:51:59;;;;;;;3.65;1.65;;;;;;;39.82;15.56;93662.19;5105618;28;20110;-48
2022/05/13 09:54:31;;;;;;;79.25;6.10;;;;;;;39.78;14.68;93659.38;5092976;28;20072;-45
2022/05/13 09:57:11;;;;;;;5.35;2.28;;;;;;;40.02;13.63;93647.50;5092209;28;20548;-45
2022/05/13 09:59:46;;;;;;;2.53;1.83;;;;;;;39.74;13.52;93650.75;5093230;28;20039;-43
2022/05/13 10:02:18;;;;;;;2.20;1.73;;;;;;;39.91;15.31;93649.06;5091966;28;20083;-44
2022/05/13 10:04:49;;;;;;;7.47;1.65;;;;;;;39.70;15.43;93644.31;5093414;28;20465;-45
2022/05/13 10:07:15;;;;;;;3.17;1.67;;;;;;;40.19;15.07;93645.09;5093484;28;20069;-48
2022/05/13 10:15:35;;;;;;;2.15;1.38;;;;;;;40.35;13.53;93635.44;5092233;28;20031;-46
2022/05/13 10:18:16;;;;;;;2.88;1.80;;;;;;;39.48;14.86;93638.78;5092858;28;20496;-45
2022/05/13 10:20:43;;;;;;;2.08;1.83;;;;;;;39.96;14.44;93629.50;5092770;28;20110;-45
2022/05/13 10:23:29;;;;;;;3.80;1.77;;;;;;;40.27;14.82;93630.50;5091853;28;20109;-44
2022/05/13 10:25:59;;;;;;;3.42;1.73;;;;;;;40.41;13.85;93632.47;5091842;28;20063;-45
2022/05/13 10:28:37;;;;;;;3.17;2.28;;;;;;;39.50;13.92;93630.06;5092721;28;20031;-45
2022/05/13 10:31:08;;;;;;;3.85;1.63;;;;;;;39.48;15.86;93621.44;5093001;28;20078;-45
2022/05/13 10:33:43;;;;;;;3.60;1.77;;;;;;;39.73;14.93;93629.06;5091422;28;20028;-45
2022/05/13 10:36:16;;;;;;;1.60;1.50;;;;;;;39.64;13.46;93621.22;5092827;28;20107;-45
2022/05/13 10:38:55;;;;;;;4.25;1.60;;;;;;;39.84;14.61;93627.47;5091643;28;20028;-47
2022/05/13 10:41:34;;;;;;;3.90;1.98;;;;;;;40.24;13.86;93622.59;5091030;28;20614;-45
2022/05/13 10:44:20;;;;;;;2.08;1.95;;;;;;;40.85;14.53;93614.38;5098445;28;20058;-45
2022/05/13 10:46:52;;;;;;;4.28;2.30;;;;;;;40.75;14.02;93606.56;5105113;28;20536;-45
2022/05/13 10:49:17;;;;;;;1.95;1.85;;;;;;;40.62;15.21;93610.41;5112696;28;20485;-48
2022/05/13 10:52:02;;;;;;;3.67;1.85;;;;;;;40.82;13.84;93607.19;5103169;28;20026;-48
2022/05/13 10:54:43;;;;;;;3.35;1.90;;;;;;;41.00;14.51;93606.16;5092042;28;20060;-48
2022/05/13 10:57:39;;;;;;;4.22;1.50;;;;;;;40.51;12.59;93601.19;5092058;28;20024;-45
2022/05/13 11:00:26;;;;;;;6.78;2.10;;;;;;;39.90;13.99;93601.38;5092417;28;20024;-47
2022/05/13 11:03:12;;;;;;;3.88;1.55;;;;;;;39.82;13.64;93589.19;5091193;28;20024;-46
2022/05/13 11:05:56;;;;;;;2.95;1.77;;;;;;;39.63;12.94;93588.75;5092175;28;20499;-45
2022/05/13 11:08:30;;;;;;;3.38;1.80;;;;;;;39.17;16.92;93584.25;5092213;28;20035;-45
2022/05/13 11:11:17;;;;;;;3.63;1.95;;;;;;;39.16;13.58;93582.06;5092035;28;20028;-44
2022/05/13 11:14:06;;;;;;;2.50;1.73;;;;;;;38.78;16.00;93574.53;5091814;28;20501;-44
2022/05/13 11:16:38;;;;;;;3.13;1.80;;;;;;;37.93;14.25;93568.72;5091756;28;20028;-44
2022/05/13 11:19:22;;;;;;;7.13;2.45;;;;;;;37.37;15.98;93564.00;5092012;28;20039;-45
2022/05/13 11:21:47;;;;;;;2.90;1.90;;;;;;;37.04;16.71;93560.53;5091560;28;20020;-44
2022/05/13 11:27:43;;;;;;;2.35;2.00;;;;;;;36.03;16.06;93545.56;5091468;28;20035;-44
2022/05/13 11:30:13;;;;;;;3.78;2.10;;;;;;;35.17;17.25;93551.84;5091692;28;20028;-47
2022/05/13 11:32:57;;;;;;;3.38;1.98;;;;;;;35.12;18.40;93552.53;5091535;28;20047;-47
2022/05/13 11:35:28;;;;;;;2.63;2.03;;;;;;;35.10;16.45;93555.41;5090149;28;20032;-44
2022/05/13 11:37:58;;;;;;;1.90;1.73;;;;;;;34.68;18.14;93550.16;5091668;28;20024;-48
2022/05/13 11:40:38;;;;;;;3.33;1.98;;;;;;;34.70;17.04;93545.16;5097081;28;20100;-44
2022/05/13 11:43:43;;;;;;;2.45;2.20;;;;;;;34.61;17.34;93540.81;5110733;28;20042;-47
2022/05/13 11:46:21;;;;;;;3.00;2.50;;;;;;;34.57;18.45;93537.19;5110295;28;20024;-44
2022/05/13 11:48:52;;;;;;;4.43;2.20;;;;;;;34.28;20.54;93539.16;5111785;28;20024;-45
2022/05/13 11:51:25;;;;;;;3.72;2.92;;;;;;;33.92;22.23;93535.97;5105622;28;20071;-46
2022/05/13 11:54:09;;;;;;;4.22;2.47;;;;;;;33.40;20.99;93534.06;5089136;28;20079;-45
2022/05/13 11:56:36;;;;;;;3.72;2.30;;;;;;;33.07;21.01;93532.28;5091085;28;20066;-45
2022/05/13 11:59:11;;;;;;;2.55;2.35;;;;;;;32.86;21.96;93528.44;5089994;28;20124;-45
2022/05/13 12:01:39;;;;;;;4.10;2.60;;;;;;;33.21;21.66;93511.69;5091239;28;20024;-45
2022/05/13 12:04:13;;;;;;;3.67;2.20;;;;;;;33.22;23.08;93516.72;5091143;28;20600;-45
2022/05/13 12:06:48;;;;;;;2.42;2.22;;;;;;;33.03;23.03;93517.94;5090792;28;20676;-46
2022/05/13 12:09:14;;;;;;;4.03;2.22;;;;;;;32.74;19.58;93511.16;5089750;28;20035;-44
2022/05/13 12:11:46;;;;;;;6.97;2.65;;;;;;;32.65;21.10;93512.47;5089804;28;20088;-45
2022/05/13 12:14:58;;;;;;;3.35;2.25;;;;;;;32.27;21.41;93503.34;5090665;28;20027;-44
2022/05/13 12:17:28;;;;;;;4.45;2.55;;;;;;;32.04;20.59;93496.63;5074457;28;20043;-44
2022/05/13 12:20:17;;;;;;;2.95;2.30;;;;;;;31.98;20.88;93490.81;5091024;28;20138;-44
2022/05/13 12:23:01;;;;;;;;;;;;;;;31.68;21.55;93495.31;5091165;28;20477;-46
2022/05/13 12:25:29;;;;;;;3.08;2.50;;;;;;;30.91;21.66;93485.38;5090660;28;19915;-45
2022/05/13 12:28:04;;;;;;;2.85;2.22;;;;;;;30.89;23.26;93473.94;5090571;28;20031;-45
2022/05/13 12:30:36;;;;;;;2.50;2.30;;;;;;;30.68;23.46;93475.66;5090806;28;20035;-45
2022/05/13 12:33:19;;;;;;;3.05;2.30;;;;;;;30.31;26.23;93478.47;5090343;28;20024;-46
2022/05/13 12:39:11;;;;;;;2.63;2.42;;;;;;;30.12;23.38;93463.09;5089758;28;20038;-45
2022/05/13 12:41:44;;;;;;;3.80;2.40;;;;;;;30.04;26.79;93468.59;5090646;28;20094;-45
2022/05/13 12:44:27;;;;;;;4.03;2.70;;;;;;;30.06;25.48;93462.25;5090346;28;20032;-46